Latest Weather Observations for Maria Island

IDT60801

Issued at 7:32 pm EDT Saturday 10 December 2016 (issued every 30 minutes, with the page automatically refreshed every 10 minutes)

About weather observations | Map of weather stations | Latest weather observations for TAS | Other Formats
Station Details ID: 092124 Name: MARIA ISLAND (POINT LESUEUR) Lat: -42.66 Lon: 148.02 Height: 28.0 m
Data from the previous 72 hours. | See also: Recent months at Maria Island
Date/Time
EDT
Temp
°C
App
Temp
°C
Dew
Point
°C
Rel
Hum
%
Delta-T
°C
Wind Press
QNH
hPa
Press
MSL
hPa
Rain since
9am
mm
Dir  Spd
km/h
Gust
km/h
Spd
kts
Gust
kts
10/07:30pm 15.7 - - - - SW 11 13 6 7 1015.9 1015.9 0.0
10/07:00pm 16.2 - - - - SW 9 13 5 7 1015.8 1015.8 0.0
10/06:30pm 16.6 - - - - W 6 9 3 5 1015.4 1015.4 0.0
10/06:00pm 16.0 - - - - S 6 9 3 5 1015.3 1015.3 0.0
10/05:30pm 15.9 - - - - SSE 9 15 5 8 1015.5 1015.5 0.0
10/05:00pm 15.7 - - - - S 13 17 7 9 1015.6 1015.6 0.0
10/04:30pm 15.7 - - - - S 11 13 6 7 1015.7 1015.7 0.0
10/04:00pm 15.9 - - - - SW 11 17 6 9 1016.0 1016.0 0.0
10/03:30pm 17.2 - - - - SW 13 17 7 9 1015.9 1015.9 0.0
10/03:00pm 17.4 - - - - W 15 22 8 12 1016.0 1016.0 0.0
10/02:30pm 18.8 - - - - W 13 24 7 13 1015.9 1015.9 0.0
10/02:00pm 18.8 - - - - WNW 13 17 7 9 1016.1 1016.1 0.0
10/01:30pm 18.3 - - - - W 22 30 12 16 1016.2 1016.2 0.0
10/01:00pm 17.7 - - - - NNE 4 7 2 4 1016.0 1016.0 0.0
10/12:30pm 17.3 - - - - NNE 7 9 4 5 1016.1 1016.1 0.0
10/12:00pm 17.5 - - - - NNW 6 9 3 5 1016.4 1016.4 0.0
10/11:30am 17.0 - - - - WSW 17 26 9 14 1016.5 1016.5 0.0
10/11:00am 17.1 - - - - W 22 32 12 17 1016.5 1016.5 0.0
10/10:30am 16.9 - - - - W 17 24 9 13 1016.5 1016.5 0.0
10/10:00am 16.4 - - - - W 19 24 10 13 1016.4 1016.4 0.0
10/09:30am 15.7 - - - - W 9 15 5 8 1016.5 1016.5 0.0
10/09:00am 15.2 - - - - WNW 9 13 5 7 1016.2 1016.2 0.0
10/08:30am 14.5 - - - - N 9 13 5 7 1016.2 1016.2 0.0
10/08:00am 13.6 - - - - WNW 9 17 5 9 1016.0 1016.0 0.0
10/07:30am 13.2 - - - - NW 4 7 2 4 1016.0 1016.0 0.0
10/07:00am 12.1 - - - - WNW 15 19 8 10 1015.6 1015.6 0.0
10/06:30am 12.0 - - - - NW 13 17 7 9 1015.4 1015.4 0.0
10/06:00am 11.3 - - - - WNW 17 20 9 11 1015.0 1015.0 0.0
10/05:30am 11.0 - - - - WNW 19 22 10 12 1014.8 1014.8 0.0
10/05:00am 11.1 - - - - WNW 19 22 10 12 1014.7 1014.7 0.0
10/04:30am 11.0 - - - - NW 19 28 10 15 1014.7 1014.7 0.0
10/04:00am 11.1 - - - - NW 22 26 12 14 1014.5 1014.5 0.0
10/03:30am 10.8 - - - - NW 19 24 10 13 1014.7 1014.7 0.0
10/03:00am 11.0 - - - - NW 15 20 8 11 1014.7 1014.7 0.0
10/02:30am 10.7 - - - - NW 13 17 7 9 1014.7 1014.7 0.0
10/02:00am 10.8 - - - - WNW 15 22 8 12 1014.7 1014.7 0.0
10/01:30am 10.8 - - - - WNW 13 17 7 9 1014.9 1014.9 0.0
10/01:00am 11.0 - - - - W 17 20 9 11 1015.0 1015.0 0.0
10/12:30am 10.7 - - - - W 11 19 6 10 1014.8 1014.8 0.0
10/12:00am 10.9 - - - - W 4 7 2 4 1015.0 1015.0 0.0
 
Date/Time
EDT
Temp
°C
App
Temp
°C
Dew
Point
°C
Rel
Hum
%
Delta-T
°C
Wind Press
QNH
hPa
Press
MSL
hPa
Rain since
9am
mm
Dir  Spd
km/h
Gust
km/h
Spd
kts
Gust
kts
09/11:30pm 10.9 - - - - W 7 11 4 6 1015.0 1015.0 0.0
09/11:00pm 11.1 - - - - W 19 24 10 13 1014.8 1014.8 0.0
09/10:30pm 11.1 - - - - W 15 19 8 10 1014.7 1014.7 0.0
09/10:00pm 11.5 - - - - WSW 22 30 12 16 1014.5 1014.5 0.0
09/09:30pm 11.5 - - - - WSW 26 35 14 19 1014.5 1014.5 0.0
09/09:00pm 11.4 - - - - WSW 30 39 16 21 1014.2 1014.2 0.0
09/08:30pm 11.0 - - - - WSW 26 32 14 17 1014.0 1014.0 0.0
09/08:00pm 10.4 - - - - SW 35 44 19 24 1013.6 1013.6 0.0
09/07:30pm 11.0 - - - - SSW 46 56 25 30 1012.6 1012.5 0.0
09/07:00pm 12.0 - - - - SSW 43 50 23 27 1011.9 1011.8 0.0
09/06:30pm 13.2 - - - - SW 39 52 21 28 1011.4 1011.3 0.0
09/06:00pm 13.9 - - - - SW 39 46 21 25 1010.4 1010.3 0.0
09/05:30pm 13.5 - - - - SW 41 54 22 29 1010.1 1010.0 0.0
09/05:00pm 13.7 - - - - SSW 37 48 20 26 1009.7 1009.6 0.0
09/04:30pm 13.0 - - - - SSW 50 63 27 34 1009.4 1009.3 0.0
09/04:00pm 13.2 - - - - SSW 43 52 23 28 1009.1 1009.0 0.0
09/03:30pm 12.5 - - - - SSW 50 61 27 33 1009.0 1008.9 0.0
09/03:00pm 12.6 - - - - SSW 43 54 23 29 1008.6 1008.5 0.0
09/02:32pm 13.3 - - - - SW 41 61 22 33 1008.8 1008.7 0.0
09/02:30pm 13.0 - - - - SW 44 61 24 33 1008.8 1008.7 0.0
09/02:00pm 12.2 - - - - SSW 43 54 23 29 1007.9 1007.8 0.0
09/01:30pm 11.8 - - - - SSW 48 59 26 32 1008.1 1008.0 0.0
09/01:16pm 10.7 - - - - SSW 48 65 26 35 1007.8 1007.7 0.0
09/01:00pm 12.1 - - - - SSW 37 46 20 25 1007.9 1007.8 0.0
09/12:41pm 10.4 - - - - SW 44 57 24 31 1007.8 1007.7 0.0
09/12:30pm 9.8 - - - - SSW 56 72 30 39 1007.5 1007.4 0.0
09/12:27pm 10.1 - - - - SSW 52 72 28 39 1007.3 1007.2 0.0
09/12:22pm 11.4 - - - - SSW 43 61 23 33 1007.4 1007.3 0.0
09/12:00pm 11.4 - - - - SW 41 50 22 27 1007.1 1007.0 0.0
09/11:54am 11.7 - - - - SW 43 57 23 31 1007.2 1007.1 0.0
09/11:30am 9.9 - - - - SSW 59 74 32 40 1006.9 1006.8 0.0
09/11:20am 10.9 - - - - SSW 50 69 27 37 1006.5 1006.4 0.0
09/11:00am 11.5 - - - - SSW 50 61 27 33 1006.2 1006.1 0.0
09/10:44am 10.3 - - - - SSW 43 50 23 27 1006.3 1006.2 0.0
09/10:30am 8.5 - - - - SSW 59 82 32 44 1006.0 1005.9 0.0
09/10:26am 8.4 - - - - SSW 61 82 33 44 1005.9 1005.8 0.0
09/10:21am 9.3 - - - - SSW 56 82 30 44 1005.6 1005.5 0.0
09/10:00am 10.5 - - - - SW 44 67 24 36 1005.4 1005.3 0.0
09/09:53am 10.3 - - - - SSW 50 69 27 37 1005.4 1005.3 0.0
09/09:30am 11.0 - - - - SW 56 72 30 39 1004.6 1004.5 0.0
09/09:07am 10.1 - - - - SW 52 70 28 38 1004.4 1004.3 0.0
09/09:00am 9.8 - - - - SW 57 70 31 38 1004.0 1003.9 1.2
09/08:42am 9.6 - - - - SW 48 70 26 38 1003.7 1003.6 1.2
09/08:30am 9.9 - - - - SW 50 69 27 37 1003.9 1003.8 1.2
09/08:16am 9.4 - - - - SW 46 65 25 35 1003.5 1003.4 1.2
09/08:07am 8.8 - - - - SW 61 87 33 47 1003.0 1002.9 1.2
09/08:04am 8.3 - - - - SSW 65 87 35 47 1002.9 1002.8 1.2
09/08:00am 8.3 - - - - SSW 65 87 35 47 1002.7 1002.6 1.2
09/07:59am 8.2 - - - - SSW 63 80 34 43 1002.8 1002.7 1.2
09/07:30am 9.0 - - - - SW 46 67 25 36 1002.6 1002.5 1.0
09/07:00am 8.8 - - - - SW 57 76 31 41 1001.6 1001.5 1.0
09/06:48am 9.6 - - - - SW 54 72 29 39 1001.1 1001.0 1.0
09/06:47am 9.6 - - - - SW 54 72 29 39 1001.1 1001.0 1.0
09/06:31am 9.6 - - - - SW 65 93 35 50 1000.2 1000.1 1.0
09/06:30am 9.7 - - - - SW 65 80 35 43 1000.3 1000.2 1.0
09/06:06am 10.2 - - - - SW 52 72 28 39 999.7 999.6 1.0
09/06:00am 10.3 - - - - SW 50 65 27 35 999.6 999.5 1.0
09/05:30am 10.4 - - - - SW 56 80 30 43 998.6 998.6 1.0
09/05:01am 10.3 - - - - SW 67 85 36 46 997.7 997.7 1.0
09/05:00am 10.4 - - - - SW 65 85 35 46 997.8 997.8 1.0
09/04:55am 10.3 - - - - SW 57 83 31 45 997.4 997.4 1.0
09/04:48am 10.5 - - - - SW 50 70 27 38 997.5 997.5 1.0
09/04:30am 10.7 - - - - SW 54 72 29 39 997.1 997.1 1.0
09/04:00am 10.9 - - - - SW 46 70 25 38 996.4 996.4 1.0
09/03:40am 10.8 - - - - SW 48 69 26 37 995.6 995.6 1.0
09/03:30am 10.9 - - - - SW 44 59 24 32 995.6 995.6 1.0
09/03:08am 10.8 - - - - SW 35 56 19 30 995.5 995.5 1.0
09/03:00am 11.0 - - - - SW 39 52 21 28 995.2 995.2 1.0
09/02:30am 11.2 - - - - SW 39 48 21 26 994.6 994.6 1.0
09/02:00am 11.1 - - - - SW 39 48 21 26 993.8 993.8 1.0
09/01:30am 11.0 - - - - SW 48 65 26 35 992.9 992.9 0.6
09/01:08am 11.9 - - - - SW 54 72 29 39 992.4 992.4 0.4
09/01:00am 11.8 - - - - SW 59 72 32 39 991.7 991.7 0.4
09/12:30am 11.8 - - - - SW 69 83 37 45 990.8 990.8 0.4
09/12:00am 12.8 - - - - SW 65 85 35 46 989.2 989.2 0.4
 
Date/Time
EDT
Temp
°C
App
Temp
°C
Dew
Point
°C
Rel
Hum
%
Delta-T
°C
Wind Press
QNH
hPa
Press
MSL
hPa
Rain since
9am
mm
Dir  Spd
km/h
Gust
km/h
Spd
kts
Gust
kts
08/11:30pm 13.7 - - - - SW 74 100 40 54 988.3 988.3 0.4
08/11:23pm 14.6 - - - - WSW 56 100 30 54 987.7 987.7 0.4
08/11:22pm 15.3 - - - - WSW 52 91 28 49 987.6 987.6 0.4
08/11:12pm 15.8 - - - - WSW 41 61 22 33 987.5 987.5 0.4
08/11:00pm 15.5 - - - - W 41 52 22 28 986.9 986.9 0.4
08/10:30pm 15.8 - - - - W 41 54 22 29 986.0 986.0 0.4
08/10:05pm 16.1 - - - - W 39 59 21 32 985.1 985.1 0.4
08/10:00pm 16.0 - - - - W 37 50 20 27 985.2 985.2 0.4
08/09:30pm 16.7 - - - - WNW 41 52 22 28 984.5 984.5 0.4
08/09:23pm 16.6 - - - - NW 37 52 20 28 984.1 984.1 0.4
08/09:00pm 16.0 - - - - NNW 39 46 21 25 983.6 983.6 0.4
08/08:30pm 16.2 - - - - NNW 37 46 20 25 983.3 983.3 0.4
08/08:00pm 16.1 - - - - NNW 35 43 19 23 982.9 982.9 0.4
08/07:30pm 16.2 - - - - N 44 57 24 31 982.6 982.6 0.4
08/07:00pm 16.1 - - - - N 48 61 26 33 982.2 982.1 0.4
08/06:41pm 16.4 - - - - NNW 50 70 27 38 982.3 982.2 0.4
08/06:30pm 16.6 - - - - N 50 61 27 33 982.5 982.5 0.4
08/06:00pm 17.0 - - - - NNW 50 74 27 40 982.7 982.7 0.4
08/05:41pm 17.2 - - - - NNW 46 65 25 35 983.3 983.3 0.4
08/05:30pm 17.2 - - - - NNW 50 67 27 36 983.0 983.0 0.4
08/05:00pm 17.5 - - - - NNW 56 83 30 45 983.1 983.1 0.4
08/04:30pm 18.7 - - - - NNW 59 80 32 43 982.8 982.8 0.4
08/04:11pm 19.1 - - - - NNW 52 70 28 38 983.3 983.3 0.4
08/04:00pm 19.1 - - - - NNW 52 65 28 35 983.6 983.6 0.4
08/03:42pm 18.3 - - - - NNW 46 59 25 32 984.2 984.2 0.4
08/03:30pm 17.0 - - - - N 56 70 30 38 984.4 984.4 0.4
08/03:00pm 16.4 - - - - NNE 59 74 32 40 984.0 984.0 0.4
08/02:30pm 16.5 - - - - NNE 54 69 29 37 984.8 984.8 0.4
08/02:08pm 16.4 - - - - NNE 57 76 31 41 985.7 985.7 0.4
08/02:00pm 16.3 - - - - NNE 59 74 32 40 985.7 985.7 0.4
08/01:46pm 16.6 - - - - NNE 56 76 30 41 985.8 985.8 0.4
08/01:30pm 16.9 - - - - NNE 52 65 28 35 986.3 986.3 0.4
08/01:00pm 17.1 - - - - NNE 61 78 33 42 986.5 986.5 0.4
08/12:36pm 17.5 - - - - NNE 57 76 31 41 986.5 986.5 0.4
08/12:30pm 17.1 - - - - NNE 54 65 29 35 986.9 986.9 0.4
08/12:17pm 16.9 - - - - NNE 52 70 28 38 987.6 987.6 0.2
08/12:00pm 17.1 - - - - NNE 50 61 27 33 988.4 988.4 0.0
08/11:30am 16.9 - - - - NNE 50 63 27 34 988.5 988.5 0.0
08/11:00am 17.1 - - - - NNE 54 67 29 36 989.8 989.8 0.0
08/10:30am 16.9 - - - - NNE 52 69 28 37 990.4 990.4 0.0
08/10:00am 16.7 - - - - NNE 57 67 31 36 991.1 991.1 0.0
08/09:30am 16.1 - - - - NNE 39 52 21 28 992.8 992.8 0.0
08/09:00am 14.4 - - - - N 32 37 17 20 994.6 994.6 1.4
08/08:30am 13.9 - - - - N 26 30 14 16 995.9 995.9 1.4
08/08:00am 13.4 - - - - N 33 37 18 20 997.0 997.0 1.4
08/07:30am 13.4 - - - - N 28 33 15 18 997.6 997.6 0.8
08/07:00am 12.7 - - - - NNE 22 26 12 14 998.3 998.3 0.8
08/06:30am 13.2 - - - - N 26 32 14 17 998.8 998.8 0.2
08/06:00am 14.1 - - - - NNW 33 39 18 21 998.9 998.9 0.0
08/05:30am 14.0 - - - - NNW 33 41 18 22 999.6 999.5 0.0
08/05:00am 14.2 - - - - NNW 32 35 17 19 1000.1 1000.0 0.0
08/04:30am 14.6 - - - - N 28 35 15 19 1000.3 1000.2 0.0
08/04:00am 14.3 - - - - N 28 32 15 17 1000.9 1000.8 0.0
08/03:30am 14.2 - - - - N 24 28 13 15 1001.9 1001.8 0.0
08/03:00am 13.7 - - - - N 11 17 6 9 1002.2 1002.1 0.0
08/02:30am 14.4 - - - - N 19 20 10 11 1003.0 1002.9 0.0
08/02:00am 14.4 - - - - NNW 17 24 9 13 1003.9 1003.8 0.0
08/01:30am 14.6 - - - - N 22 30 12 16 1004.3 1004.2 0.0
08/01:00am 14.8 - - - - N 11 13 6 7 1004.5 1004.4 0.0
08/12:30am 14.9 - - - - NNW 11 15 6 8 1005.9 1005.8 0.0
08/12:00am 15.0 - - - - WNW 13 17 7 9 1006.5 1006.4 0.0
 
Date/Time
EDT
Temp
°C
App
Temp
°C
Dew
Point
°C
Rel
Hum
%
Delta-T
°C
Wind Press
QNH
hPa
Press
MSL
hPa
Rain since
9am
mm
Dir  Spd
km/h
Gust
km/h
Spd
kts
Gust
kts
07/11:30pm 15.3 - - - - WNW 19 24 10 13 1006.5 1006.4 0.0
07/11:00pm 15.4 - - - - NW 6 9 3 5 1006.2 1006.1 0.0
07/10:30pm 15.8 - - - - WNW 17 22 9 12 1006.4 1006.3 0.0
07/10:00pm 16.3 - - - - N 13 17 7 9 1007.1 1007.0 0.0
07/09:30pm 16.8 - - - - N 22 26 12 14 1007.1 1007.0 0.0
07/09:00pm 16.5 - - - - NNW 17 19 9 10 1007.2 1007.1 0.0
07/08:30pm 17.0 - - - - NNW 24 28 13 15 1007.3 1007.2 0.0
07/08:00pm 17.2 - - - - N 26 30 14 16 1007.1 1007.0 0.0

Other Formats:

Comma delimited format used in spreadsheet applications
http://www.bom.gov.au/fwo/IDT60801/IDT60801.95988.axf

JavaScript Object Notation format (JSON) in row-major order
http://www.bom.gov.au/fwo/IDT60801/IDT60801.95988.json